首页
METAR-TAF:

METAR-TAF

机场 :

Lee Gilmer Memorial Airport

蓋恩斯維爾, 喬治亞, 美国

纬度: 34-16-19N, 经度: 083-49-49W, 海拔: 388米

当前天气观测

该预报发布于32分钟前的22:53 UTC
风速7节,风向西
温度 17°C
湿度 94%
气压 1018 hPa
能見度: 6.4公里
少量云层高于7500英尺
阴天层高于10000英尺
雨, 轻雾

METAR: KGVL 132253Z AUTO 26007KT 4SM RA BR FEW075 OVC100 17/16 A3006 RMK AO2 RAB00 SLP170 P0004 T01670156

时间: 19:25 (23:25 UTC)


TAF: 丢失

超过4000个机场的气象观测和天气预报(METAR&TAF报告)。

可查询的气象台以黄色和红色小点在地图上表示。

将鼠标移到小点上方,可查看气象台名称。

然后点击查看天气观测和预报。

如需切换地图:点击带黑十字的绿色按钮放大地图;点击带横线的绿色按钮缩小地图;或者点击绿色箭头查看邻近地区的地图。


METAR-TAF: